sensor_id;sensor_type;location;lat;lon;timestamp;pressure;altitude;pressure_sealevel;temperature;humidity
36598;BME280;22607;49.550;11.940;2023-11-21T00:02:18;96267.59;;;7.78;100.00
36598;BME280;22607;49.550;11.940;2023-11-21T00:04:45;96273.16;;;7.75;100.00
36598;BME280;22607;49.550;11.940;2023-11-21T00:07:12;96259.44;;;7.73;100.00
36598;BME280;22607;49.550;11.940;2023-11-21T00:09:38;96266.91;;;7.76;100.00
36598;BME280;22607;49.550;11.940;2023-11-21T00:12:05;96264.47;;;7.74;100.00
36598;BME280;22607;49.550;11.940;2023-11-21T00:14:32;96263.31;;;7.77;100.00
36598;BME280;22607;49.550;11.940;2023-11-21T00:17:00;96265.28;;;7.83;100.00
36598;BME280;22607;49.550;11.940;2023-11-21T00:19:27;96264.13;;;7.86;100.00
36598;BME280;22607;49.550;11.940;2023-11-21T00:21:53;96258.44;;;7.82;100.00
36598;BME280;22607;49.550;11.940;2023-11-21T00:24:21;96266.78;;;7.69;100.00
36598;BME280;22607;49.550;11.940;2023-11-21T00:26:48;96266.59;;;7.79;100.00
36598;BME280;22607;49.550;11.940;2023-11-21T00:29:15;96262.53;;;7.68;100.00
36598;BME280;22607;49.550;11.940;2023-11-21T00:31:44;96262.72;;;7.58;100.00
36598;BME280;22607;49.550;11.940;2023-11-21T00:34:11;96267.78;;;7.52;100.00
36598;BME280;22607;49.550;11.940;2023-11-21T00:36:39;96269.75;;;7.58;100.00
36598;BME280;22607;49.550;11.940;2023-11-21T00:39:08;96266.16;;;7.51;100.00
36598;BME280;22607;49.550;11.940;2023-11-21T00:41:35;96259.47;;;7.56;100.00
36598;BME280;22607;49.550;11.940;2023-11-21T00:44:03;96263.88;;;7.56;100.00
36598;BME280;22607;49.550;11.940;2023-11-21T00:46:30;96253.63;;;7.38;100.00
36598;BME280;22607;49.550;11.940;2023-11-21T00:48:57;96257.03;;;7.46;100.00
36598;BME280;22607;49.550;11.940;2023-11-21T00:51:24;96261.94;;;7.33;100.00
36598;BME280;22607;49.550;11.940;2023-11-21T00:53:53;96246.94;;;7.27;100.00
36598;BME280;22607;49.550;11.940;2023-11-21T00:56:19;96264.88;;;7.46;100.00
36598;BME280;22607;49.550;11.940;2023-11-21T00:58:46;96259.47;;;7.48;100.00
36598;BME280;22607;49.550;11.940;2023-11-21T01:01:18;96261.31;;;7.47;100.00
36598;BME280;22607;49.550;11.940;2023-11-21T01:03:48;96259.34;;;7.41;100.00
36598;BME280;22607;49.550;11.940;2023-11-21T01:06:15;96260.47;;;7.39;100.00
36598;BME280;22607;49.550;11.940;2023-11-21T01:08:43;96257.53;;;7.42;100.00
36598;BME280;22607;49.550;11.940;2023-11-21T01:11:11;96258.06;;;7.29;100.00
36598;BME280;22607;49.550;11.940;2023-11-21T01:13:39;96256.91;;;7.31;100.00
36598;BME280;22607;49.550;11.940;2023-11-21T01:16:07;96249.38;;;7.45;100.00
36598;BME280;22607;49.550;11.940;2023-11-21T01:18:35;96255.56;;;7.52;100.00
36598;BME280;22607;49.550;11.940;2023-11-21T01:21:02;96251.94;;;7.53;100.00
36598;BME280;22607;49.550;11.940;2023-11-21T01:23:28;96254.72;;;7.60;100.00
36598;BME280;22607;49.550;11.940;2023-11-21T01:25:56;96253.59;;;7.54;100.00
36598;BME280;22607;49.550;11.940;2023-11-21T01:28:23;96253.72;;;7.69;100.00
36598;BME280;22607;49.550;11.940;2023-11-21T01:30:49;96250.25;;;7.77;100.00
36598;BME280;22607;49.550;11.940;2023-11-21T01:33:16;96246.69;;;7.70;100.00
36598;BME280;22607;49.550;11.940;2023-11-21T01:35:43;96257.84;;;7.55;100.00
36598;BME280;22607;49.550;11.940;2023-11-21T01:38:09;96253.91;;;7.59;100.00
36598;BME280;22607;49.550;11.940;2023-11-21T01:40:36;96248.84;;;7.58;100.00
36598;BME280;22607;49.550;11.940;2023-11-21T01:43:03;96246.41;;;7.56;100.00
36598;BME280;22607;49.550;11.940;2023-11-21T01:45:29;96260.16;;;7.50;100.00
36598;BME280;22607;49.550;11.940;2023-11-21T01:48:01;96259.00;;;7.53;100.00
36598;BME280;22607;49.550;11.940;2023-11-21T01:50:29;96260.47;;;7.55;100.00
36598;BME280;22607;49.550;11.940;2023-11-21T01:52:56;96257.84;;;7.55;100.00
36598;BME280;22607;49.550;11.940;2023-11-21T01:55:23;96259.00;;;7.53;100.00
36598;BME280;22607;49.550;11.940;2023-11-21T01:57:54;96260.78;;;7.52;100.00
36598;BME280;22607;49.550;11.940;2023-11-21T02:00:22;96249.38;;;7.45;100.00
36598;BME280;22607;49.550;11.940;2023-11-21T02:02:50;96244.31;;;7.43;100.00
36598;BME280;22607;49.550;11.940;2023-11-21T02:05:18;96255.59;;;7.35;100.00
36598;BME280;22607;49.550;11.940;2023-11-21T02:07:46;96252.66;;;7.39;100.00
36598;BME280;22607;49.550;11.940;2023-11-21T02:10:16;96242.72;;;7.26;100.00
36598;BME280;22607;49.550;11.940;2023-11-21T02:12:44;96246.28;;;7.33;100.00
36598;BME280;22607;49.550;11.940;2023-11-21T02:15:13;96247.09;;;7.33;100.00
36598;BME280;22607;49.550;11.940;2023-11-21T02:17:47;96247.78;;;7.35;100.00
36598;BME280;22607;49.550;11.940;2023-11-21T02:20:21;96247.78;;;7.11;100.00
36598;BME280;22607;49.550;11.940;2023-11-21T02:22:50;96245.16;;;7.02;100.00
36598;BME280;22607;49.550;11.940;2023-11-21T02:25:22;96248.44;;;7.04;100.00
36598;BME280;22607;49.550;11.940;2023-11-21T02:27:49;96248.25;;;7.14;100.00
36598;BME280;22607;49.550;11.940;2023-11-21T02:30:15;96249.09;;;7.15;100.00
36598;BME280;22607;49.550;11.940;2023-11-21T02:32:42;96240.63;;;7.13;100.00
36598;BME280;22607;49.550;11.940;2023-11-21T02:35:15;96241.91;;;7.08;100.00
36598;BME280;22607;49.550;11.940;2023-11-21T02:37:42;96240.78;;;7.03;100.00
36598;BME280;22607;49.550;11.940;2023-11-21T02:40:10;96238.00;;;7.04;100.00
36598;BME280;22607;49.550;11.940;2023-11-21T02:42:40;96242.09;;;7.15;100.00
36598;BME280;22607;49.550;11.940;2023-11-21T02:45:07;96237.34;;;7.11;100.00
36598;BME280;22607;49.550;11.940;2023-11-21T02:47:34;96231.13;;;7.12;100.00
36598;BME280;22607;49.550;11.940;2023-11-21T02:50:01;96244.66;;;7.23;100.00
36598;BME280;22607;49.550;11.940;2023-11-21T02:52:28;96237.00;;;7.22;100.00
36598;BME280;22607;49.550;11.940;2023-11-21T02:54:54;96233.25;;;7.25;100.00
36598;BME280;22607;49.550;11.940;2023-11-21T02:57:21;96232.59;;;7.31;100.00
36598;BME280;22607;49.550;11.940;2023-11-21T02:59:47;96233.72;;;7.28;100.00
36598;BME280;22607;49.550;11.940;2023-11-21T03:02:14;96236.03;;;7.23;100.00
36598;BME280;22607;49.550;11.940;2023-11-21T03:04:42;96234.88;;;7.34;100.00
36598;BME280;22607;49.550;11.940;2023-11-21T03:07:09;96236.03;;;7.31;100.00
36598;BME280;22607;49.550;11.940;2023-11-21T03:09:37;96243.66;;;7.41;100.00
36598;BME280;22607;49.550;11.940;2023-11-21T03:12:04;96238.09;;;7.44;100.00
36598;BME280;22607;49.550;11.940;2023-11-21T03:14:31;96239.56;;;7.55;100.00
36598;BME280;22607;49.550;11.940;2023-11-21T03:16:57;96243.16;;;7.54;100.00
36598;BME280;22607;49.550;11.940;2023-11-21T03:19:24;96241.50;;;7.53;100.00
36598;BME280;22607;49.550;11.940;2023-11-21T03:21:51;96244.78;;;7.55;100.00
36598;BME280;22607;49.550;11.940;2023-11-21T03:24:19;96234.72;;;7.27;100.00
36598;BME280;22607;49.550;11.940;2023-11-21T03:26:46;96241.19;;;7.48;100.00
36598;BME280;22607;49.550;11.940;2023-11-21T03:29:15;96237.44;;;7.42;100.00
36598;BME280;22607;49.550;11.940;2023-11-21T03:31:42;96245.13;;;7.44;100.00
36598;BME280;22607;49.550;11.940;2023-11-21T03:34:24;96234.03;;;7.33;100.00
36598;BME280;22607;49.550;11.940;2023-11-21T03:36:53;96235.22;;;6.89;100.00
36598;BME280;22607;49.550;11.940;2023-11-21T03:39:20;96241.75;;;7.10;100.00
36598;BME280;22607;49.550;11.940;2023-11-21T03:41:47;96241.91;;;7.17;100.00
36598;BME280;22607;49.550;11.940;2023-11-21T03:44:14;96239.63;;;7.22;100.00
36598;BME280;22607;49.550;11.940;2023-11-21T03:46:41;96243.50;;;7.34;100.00
36598;BME280;22607;49.550;11.940;2023-11-21T03:49:08;96247.09;;;7.33;100.00
36598;BME280;22607;49.550;11.940;2023-11-21T03:51:34;96237.66;;;7.24;100.00
36598;BME280;22607;49.550;11.940;2023-11-21T03:54:01;96247.56;;;7.37;100.00
36598;BME280;22607;49.550;11.940;2023-11-21T03:56:27;96248.56;;;7.28;100.00
36598;BME280;22607;49.550;11.940;2023-11-21T03:58:54;96244.81;;;7.39;100.00
36598;BME280;22607;49.550;11.940;2023-11-21T04:01:21;96242.03;;;7.32;100.00
36598;BME280;22607;49.550;11.940;2023-11-21T04:03:49;96256.09;;;7.39;100.00
36598;BME280;22607;49.550;11.940;2023-11-21T04:06:17;96252.31;;;7.42;100.00
36598;BME280;22607;49.550;11.940;2023-11-21T04:08:45;96246.94;;;7.43;100.00
36598;BME280;22607;49.550;11.940;2023-11-21T04:11:12;96256.88;;;7.48;100.00
36598;BME280;22607;49.550;11.940;2023-11-21T04:13:40;96250.50;;;7.51;100.00
36598;BME280;22607;49.550;11.940;2023-11-21T04:16:08;96257.69;;;7.48;100.00
36598;BME280;22607;49.550;11.940;2023-11-21T04:18:38;96259.84;;;7.45;100.00
36598;BME280;22607;49.550;11.940;2023-11-21T04:21:06;96240.88;;;7.34;100.00
36598;BME280;22607;49.550;11.940;2023-11-21T04:23:33;96249.56;;;7.35;100.00
36598;BME280;22607;49.550;11.940;2023-11-21T04:26:00;96251.38;;;7.26;100.00
36598;BME280;22607;49.550;11.940;2023-11-21T04:28:28;96248.56;;;7.28;100.00
36598;BME280;22607;49.550;11.940;2023-11-21T04:30:55;96245.31;;;7.26;100.00
36598;BME280;22607;49.550;11.940;2023-11-21T04:33:22;96243.53;;;7.18;100.00
36598;BME280;22607;49.550;11.940;2023-11-21T04:35:49;96244.22;;;7.03;100.00
36598;BME280;22607;49.550;11.940;2023-11-21T04:38:15;96253.34;;;6.91;100.00
36598;BME280;22607;49.550;11.940;2023-11-21T04:40:42;96252.69;;;7.14;100.00
36598;BME280;22607;49.550;11.940;2023-11-21T04:43:09;96247.28;;;7.23;100.00
36598;BME280;22607;49.550;11.940;2023-11-21T04:45:35;96253.16;;;7.34;100.00
36598;BME280;22607;49.550;11.940;2023-11-21T04:48:02;96259.53;;;7.31;100.00
36598;BME280;22607;49.550;11.940;2023-11-21T04:50:30;96257.06;;;7.30;100.00
36598;BME280;22607;49.550;11.940;2023-11-21T04:52:56;96264.22;;;7.44;100.00
36598;BME280;22607;49.550;11.940;2023-11-21T04:55:23;96266.03;;;7.44;100.00
36598;BME280;22607;49.550;11.940;2023-11-21T04:57:49;96270.44;;;7.43;100.00
36598;BME280;22607;49.550;11.940;2023-11-21T05:00:17;96261.47;;;7.38;100.00
36598;BME280;22607;49.550;11.940;2023-11-21T05:02:44;96267.38;;;7.31;100.00
36598;BME280;22607;49.550;11.940;2023-11-21T05:05:11;96261.31;;;7.31;100.00
36598;BME280;22607;49.550;11.940;2023-11-21T05:07:39;96269.63;;;7.34;100.00
36598;BME280;22607;49.550;11.940;2023-11-21T05:10:07;96266.38;;;7.41;100.00
36598;BME280;22607;49.550;11.940;2023-11-21T05:12:37;96269.66;;;7.18;100.00
36598;BME280;22607;49.550;11.940;2023-11-21T05:15:04;96265.06;;;7.12;100.00
36598;BME280;22607;49.550;11.940;2023-11-21T05:17:38;96265.75;;;7.22;100.00
36598;BME280;22607;49.550;11.940;2023-11-21T05:20:12;96251.69;;;7.23;100.00
36598;BME280;22607;49.550;11.940;2023-11-21T05:22:40;96262.81;;;7.17;100.00
36598;BME280;22607;49.550;11.940;2023-11-21T05:25:09;96265.06;;;7.28;100.00
36598;BME280;22607;49.550;11.940;2023-11-21T05:27:36;96268.66;;;7.35;100.00
36598;BME280;22607;49.550;11.940;2023-11-21T05:30:03;96262.78;;;7.25;100.00
36598;BME280;22607;49.550;11.940;2023-11-21T05:32:32;96275.53;;;7.28;100.00
36598;BME280;22607;49.550;11.940;2023-11-21T05:34:59;96274.38;;;7.31;100.00
36598;BME280;22607;49.550;11.940;2023-11-21T05:37:25;96278.13;;;7.28;100.00
36598;BME280;22607;49.550;11.940;2023-11-21T05:39:54;96279.28;;;7.34;100.00
36598;BME280;22607;49.550;11.940;2023-11-21T05:42:23;96278.94;;;7.37;100.00
36598;BME280;22607;49.550;11.940;2023-11-21T05:44:50;96278.94;;;7.37;100.00
36598;BME280;22607;49.550;11.940;2023-11-21T05:47:17;96296.75;;;7.42;100.00
36598;BME280;22607;49.550;11.940;2023-11-21T05:49:44;96298.38;;;7.43;100.00
36598;BME280;22607;49.550;11.940;2023-11-21T05:52:12;96297.88;;;7.39;100.00
36598;BME280;22607;49.550;11.940;2023-11-21T05:54:38;96294.97;;;7.34;100.00
36598;BME280;22607;49.550;11.940;2023-11-21T05:57:06;96290.72;;;7.25;100.00
36598;BME280;22607;49.550;11.940;2023-11-21T05:59:33;96282.72;;;7.18;100.00
36598;BME280;22607;49.550;11.940;2023-11-21T06:02:00;96287.94;;;7.18;100.00
36598;BME280;22607;49.550;11.940;2023-11-21T06:04:28;96296.25;;;7.30;100.00
36598;BME280;22607;49.550;11.940;2023-11-21T06:06:55;96290.22;;;7.13;100.00
36598;BME280;22607;49.550;11.940;2023-11-21T06:09:21;96294.47;;;7.14;100.00
36598;BME280;22607;49.550;11.940;2023-11-21T06:11:49;96292.00;;;7.04;100.00
36598;BME280;22607;49.550;11.940;2023-11-21T06:14:15;96302.31;;;7.22;100.00
36598;BME280;22607;49.550;11.940;2023-11-21T06:16:44;96300.66;;;7.29;100.00
36598;BME280;22607;49.550;11.940;2023-11-21T06:19:21;96294.13;;;7.25;100.00
36598;BME280;22607;49.550;11.940;2023-11-21T06:21:47;96309.63;;;7.27;100.00
36598;BME280;22607;49.550;11.940;2023-11-21T06:24:14;96310.16;;;7.22;100.00
36598;BME280;22607;49.550;11.940;2023-11-21T06:26:41;96310.13;;;7.14;100.00
36598;BME280;22607;49.550;11.940;2023-11-21T06:29:08;96309.81;;;7.00;100.00
36598;BME280;22607;49.550;11.940;2023-11-21T06:31:35;96317.66;;;7.17;100.00
36598;BME280;22607;49.550;11.940;2023-11-21T06:34:01;96315.38;;;7.14;100.00
36598;BME280;22607;49.550;11.940;2023-11-21T06:36:36;96317.63;;;6.92;100.00
36598;BME280;22607;49.550;11.940;2023-11-21T06:39:03;96328.41;;;7.14;100.00
36598;BME280;22607;49.550;11.940;2023-11-21T06:41:34;96325.81;;;7.05;100.00
36598;BME280;22607;49.550;11.940;2023-11-21T06:44:01;96328.25;;;7.07;100.00
36598;BME280;22607;49.550;11.940;2023-11-21T06:46:30;96327.59;;;7.13;100.00
36598;BME280;22607;49.550;11.940;2023-11-21T06:48:57;96324.81;;;7.15;100.00
36598;BME280;22607;49.550;11.940;2023-11-21T06:51:23;96326.78;;;7.21;100.00
36598;BME280;22607;49.550;11.940;2023-11-21T06:53:50;96330.38;;;7.20;100.00
36598;BME280;22607;49.550;11.940;2023-11-21T06:56:17;96334.78;;;7.19;100.00
36598;BME280;22607;49.550;11.940;2023-11-21T06:58:45;96333.50;;;7.15;100.00
36598;BME280;22607;49.550;11.940;2023-11-21T07:01:13;96330.03;;;7.06;100.00
36598;BME280;22607;49.550;11.940;2023-11-21T07:03:40;96330.72;;;7.08;100.00
36598;BME280;22607;49.550;11.940;2023-11-21T07:06:09;96324.97;;;7.13;100.00
36598;BME280;22607;49.550;11.940;2023-11-21T07:08:35;96331.34;;;7.11;100.00
36598;BME280;22607;49.550;11.940;2023-11-21T07:11:02;96328.09;;;7.17;100.00
36598;BME280;22607;49.550;11.940;2023-11-21T07:13:30;96345.06;;;7.29;100.00
36598;BME280;22607;49.550;11.940;2023-11-21T07:15:59;96345.53;;;7.33;100.00
36598;BME280;22607;49.550;11.940;2023-11-21T07:18:28;96350.94;;;7.40;100.00
36598;BME280;22607;49.550;11.940;2023-11-21T07:20:55;96350.94;;;7.40;100.00
36598;BME280;22607;49.550;11.940;2023-11-21T07:23:21;96355.84;;;7.43;100.00
36598;BME280;22607;49.550;11.940;2023-11-21T07:25:48;96355.19;;;7.32;100.00
36598;BME280;22607;49.550;11.940;2023-11-21T07:28:15;96364.66;;;7.33;100.00
36598;BME280;22607;49.550;11.940;2023-11-21T07:30:42;96373.66;;;7.47;100.00
36598;BME280;22607;49.550;11.940;2023-11-21T07:33:09;96368.44;;;7.47;100.00
36598;BME280;22607;49.550;11.940;2023-11-21T07:35:36;96373.97;;;7.44;100.00
36598;BME280;22607;49.550;11.940;2023-11-21T07:38:03;96384.44;;;7.44;100.00
36598;BME280;22607;49.550;11.940;2023-11-21T07:40:35;96383.44;;;7.37;100.00
36598;BME280;22607;49.550;11.940;2023-11-21T07:43:02;96369.72;;;7.35;100.00
36598;BME280;22607;49.550;11.940;2023-11-21T07:45:28;96386.53;;;7.49;100.00
36598;BME280;22607;49.550;11.940;2023-11-21T07:47:55;96386.22;;;7.44;100.00
36598;BME280;22607;49.550;11.940;2023-11-21T07:50:24;96385.22;;;7.61;100.00
36598;BME280;22607;49.550;11.940;2023-11-21T07:52:50;96392.91;;;7.55;100.00
36598;BME280;22607;49.550;11.940;2023-11-21T07:55:17;96384.56;;;7.34;100.00
36598;BME280;22607;49.550;11.940;2023-11-21T07:57:46;96392.72;;;7.40;100.00
36598;BME280;22607;49.550;11.940;2023-11-21T08:00:13;96393.38;;;7.58;100.00
36598;BME280;22607;49.550;11.940;2023-11-21T08:02:41;96402.22;;;7.66;100.00
36598;BME280;22607;49.550;11.940;2023-11-21T08:05:13;96403.84;;;7.67;100.00
36598;BME280;22607;49.550;11.940;2023-11-21T08:07:50;96398.47;;;7.68;100.00
36598;BME280;22607;49.550;11.940;2023-11-21T08:10:17;96397.00;;;7.82;100.00
36598;BME280;22607;49.550;11.940;2023-11-21T08:12:44;96404.84;;;7.74;100.00
36598;BME280;22607;49.550;11.940;2023-11-21T08:15:11;96396.63;;;7.85;100.00
36598;BME280;22607;49.550;11.940;2023-11-21T08:17:38;96404.84;;;7.82;100.00
36598;BME280;22607;49.550;11.940;2023-11-21T08:20:06;96415.63;;;7.79;100.00
36598;BME280;22607;49.550;11.940;2023-11-21T08:22:35;96417.41;;;7.95;100.00
36598;BME280;22607;49.550;11.940;2023-11-21T08:25:02;96420.34;;;7.84;100.00
36598;BME280;22607;49.550;11.940;2023-11-21T08:27:30;96422.47;;;7.88;100.00
36598;BME280;22607;49.550;11.940;2023-11-21T08:29:57;96416.75;;;7.77;100.00
36598;BME280;22607;49.550;11.940;2023-11-21T08:32:24;96412.31;;;7.85;100.00
36598;BME280;22607;49.550;11.940;2023-11-21T08:34:51;96418.69;;;7.83;100.00
36598;BME280;22607;49.550;11.940;2023-11-21T08:37:20;96415.41;;;7.89;100.00
36598;BME280;22607;49.550;11.940;2023-11-21T08:39:47;96417.25;;;7.88;100.00
36598;BME280;22607;49.550;11.940;2023-11-21T08:42:14;96403.34;;;7.80;100.00
36598;BME280;22607;49.550;11.940;2023-11-21T08:44:41;96409.38;;;7.88;100.00
36598;BME280;22607;49.550;11.940;2023-11-21T08:47:08;96403.84;;;7.92;100.00
36598;BME280;22607;49.550;11.940;2023-11-21T08:49:34;96406.41;;;8.08;100.00
36598;BME280;22607;49.550;11.940;2023-11-21T08:52:01;96418.50;;;8.09;100.00
36598;BME280;22607;49.550;11.940;2023-11-21T08:54:28;96417.53;;;8.02;100.00
36598;BME280;22607;49.550;11.940;2023-11-21T08:56:54;96424.19;;;8.21;100.00
36598;BME280;22607;49.550;11.940;2023-11-21T08:59:21;96427.47;;;8.23;100.00
36598;BME280;22607;49.550;11.940;2023-11-21T09:01:48;96426.66;;;8.14;100.00
36598;BME280;22607;49.550;11.940;2023-11-21T09:04:14;96426.34;;;8.09;100.00
36598;BME280;22607;49.550;11.940;2023-11-21T09:06:41;96426.00;;;8.21;100.00
36598;BME280;22607;49.550;11.940;2023-11-21T09:09:08;96431.72;;;8.24;100.00
36598;BME280;22607;49.550;11.940;2023-11-21T09:11:36;96431.72;;;8.16;100.00
36598;BME280;22607;49.550;11.940;2023-11-21T09:14:05;96435.78;;;8.27;100.00
36598;BME280;22607;49.550;11.940;2023-11-21T09:16:32;96418.16;;;8.21;100.00
36598;BME280;22607;49.550;11.940;2023-11-21T09:18:58;96428.56;;;8.37;100.00
36598;BME280;22607;49.550;11.940;2023-11-21T09:21:28;96437.06;;;8.48;100.00
36598;BME280;22607;49.550;11.940;2023-11-21T09:23:55;96427.09;;;8.35;100.00
36598;BME280;22607;49.550;11.940;2023-11-21T09:26:21;96441.16;;;8.42;100.00
36598;BME280;22607;49.550;11.940;2023-11-21T09:28:48;96450.47;;;8.45;100.00
36598;BME280;22607;49.550;11.940;2023-11-21T09:31:14;96451.81;;;8.32;100.00
36598;BME280;22607;49.550;11.940;2023-11-21T09:33:43;96448.19;;;8.41;100.00
36598;BME280;22607;49.550;11.940;2023-11-21T09:36:13;96454.44;;;8.32;100.00
36598;BME280;22607;49.550;11.940;2023-11-21T09:38:41;96456.06;;;8.33;100.00
36598;BME280;22607;49.550;11.940;2023-11-21T09:41:20;96460.44;;;8.49;100.00
36598;BME280;22607;49.550;11.940;2023-11-21T09:43:49;96456.88;;;8.42;100.00
36598;BME280;22607;49.550;11.940;2023-11-21T09:46:21;96462.72;;;8.44;100.00
36598;BME280;22607;49.550;11.940;2023-11-21T09:48:51;96467.81;;;8.37;100.00
36598;BME280;22607;49.550;11.940;2023-11-21T09:51:24;96454.91;;;8.52;100.00
36598;BME280;22607;49.550;11.940;2023-11-21T09:53:53;96465.66;;;8.66;100.00
36598;BME280;22607;49.550;11.940;2023-11-21T09:56:20;96468.28;;;8.66;100.00
36598;BME280;22607;49.550;11.940;2023-11-21T09:58:52;96466.09;;;8.78;100.00
36598;BME280;22607;49.550;11.940;2023-11-21T10:01:20;96466.78;;;8.72;100.00
36598;BME280;22607;49.550;11.940;2023-11-21T10:03:55;96460.56;;;8.73;100.00
36598;BME280;22607;49.550;11.940;2023-11-21T10:06:23;96466.09;;;8.78;100.00
36598;BME280;22607;49.550;11.940;2023-11-21T10:08:53;96472.81;;;8.72;100.00
36598;BME280;22607;49.550;11.940;2023-11-21T10:11:24;96460.59;;;8.64;100.00
36598;BME280;22607;49.550;11.940;2023-11-21T10:13:54;96465.50;;;8.59;100.00
36598;BME280;22607;49.550;11.940;2023-11-21T10:16:22;96444.25;;;8.46;100.00
36598;BME280;22607;49.550;11.940;2023-11-21T10:18:52;96461.88;;;8.69;100.00
36598;BME280;22607;49.550;11.940;2023-11-21T10:21:38;96455.38;;;8.56;100.00
36598;BME280;22607;49.550;11.940;2023-11-21T10:24:05;96461.75;;;8.62;100.00
36598;BME280;22607;49.550;11.940;2023-11-21T10:26:33;96461.06;;;8.68;100.00
36598;BME280;22607;49.550;11.940;2023-11-21T10:29:14;96460.22;;;8.76;100.00
36598;BME280;22607;49.550;11.940;2023-11-21T10:31:43;96454.66;;;8.71;100.00
36598;BME280;22607;49.550;11.940;2023-11-21T10:34:16;96464.31;;;8.78;100.00
36598;BME280;22607;49.550;11.940;2023-11-21T10:36:43;96459.44;;;8.59;100.00
36598;BME280;22607;49.550;11.940;2023-11-21T10:39:13;96465.66;;;8.58;100.00
36598;BME280;22607;49.550;11.940;2023-11-21T10:41:41;96466.66;;;8.40;100.00
36598;BME280;22607;49.550;11.940;2023-11-21T10:44:08;96462.06;;;8.59;100.00
36598;BME280;22607;49.550;11.940;2023-11-21T10:46:35;96462.88;;;8.68;100.00
36598;BME280;22607;49.550;11.940;2023-11-21T10:49:02;96462.00;;;8.84;100.00
36598;BME280;22607;49.550;11.940;2023-11-21T10:51:29;96447.97;;;8.68;100.00
36598;BME280;22607;49.550;11.940;2023-11-21T10:53:56;96466.56;;;8.82;100.00
36598;BME280;22607;49.550;11.940;2023-11-21T10:56:23;96472.53;;;8.99;100.00
36598;BME280;22607;49.550;11.940;2023-11-21T10:58:50;96470.59;;;9.01;100.00
36598;BME280;22607;49.550;11.940;2023-11-21T11:01:21;96467.03;;;9.25;100.00
36598;BME280;22607;49.550;11.940;2023-11-21T11:03:58;96464.41;;;9.25;100.00
36598;BME280;22607;49.550;11.940;2023-11-21T11:06:27;96471.75;;;9.30;100.00
36598;BME280;22607;49.550;11.940;2023-11-21T11:08:55;96455.03;;;9.31;100.00
36598;BME280;22607;49.550;11.940;2023-11-21T11:11:22;96456.56;;;9.25;100.00
36598;BME280;22607;49.550;11.940;2023-11-21T11:13:49;96465.25;;;9.49;100.00
36598;BME280;22607;49.550;11.940;2023-11-21T11:16:16;96449.81;;;9.54;100.00
36598;BME280;22607;49.550;11.940;2023-11-21T11:18:44;96462.38;;;9.59;100.00
36598;BME280;22607;49.550;11.940;2023-11-21T11:21:25;96458.94;;;9.58;100.00
36598;BME280;22607;49.550;11.940;2023-11-21T11:27:10;96459.88;;;9.42;100.00
36598;BME280;22607;49.550;11.940;2023-11-21T11:35:33;96470.59;;;9.01;100.00
36598;BME280;22607;49.550;11.940;2023-11-21T11:38:01;96465.34;;;9.01;100.00
36598;BME280;22607;49.550;11.940;2023-11-21T11:41:03;96478.44;;;9.01;100.00
36598;BME280;22607;49.550;11.940;2023-11-21T11:43:32;96470.41;;;9.02;100.00
36598;BME280;22607;49.550;11.940;2023-11-21T11:46:11;96473.22;;;9.01;100.00
36598;BME280;22607;49.550;11.940;2023-11-21T11:48:41;96469.41;;;9.12;100.00
36598;BME280;22607;49.550;11.940;2023-11-21T11:51:13;96464.63;;;9.15;100.00
36598;BME280;22607;49.550;11.940;2023-11-21T11:53:48;96458.00;;;9.28;100.00
36598;BME280;22607;49.550;11.940;2023-11-21T11:56:31;96469.69;;;9.17;100.00
36598;BME280;22607;49.550;11.940;2023-11-21T11:59:02;96473.09;;;9.17;100.00
36598;BME280;22607;49.550;11.940;2023-11-21T12:01:32;96450.22;;;9.11;100.00
36598;BME280;22607;49.550;11.940;2023-11-21T12:07:00;96474.75;;;9.18;100.00
36598;BME280;22607;49.550;11.940;2023-11-21T12:09:29;96479.09;;;9.35;100.00
36598;BME280;22607;49.550;11.940;2023-11-21T12:11:58;96481.06;;;9.32;100.00
36598;BME280;22607;49.550;11.940;2023-11-21T12:14:27;96480.50;;;9.45;100.00
36598;BME280;22607;49.550;11.940;2023-11-21T12:16:55;96477.22;;;9.43;100.00
36598;BME280;22607;49.550;11.940;2023-11-21T12:19:22;96487.63;;;9.60;100.00
36598;BME280;22607;49.550;11.940;2023-11-21T12:21:49;96475.91;;;9.48;100.00
36598;BME280;22607;49.550;11.940;2023-11-21T12:24:22;96485.38;;;9.49;100.00
36598;BME280;22607;49.550;11.940;2023-11-21T12:26:50;96476.31;;;9.59;100.00
36598;BME280;22607;49.550;11.940;2023-11-21T12:29:16;96475.19;;;9.54;100.00
36598;BME280;22607;49.550;11.940;2023-11-21T12:31:48;96484.81;;;9.62;100.00
36598;BME280;22607;49.550;11.940;2023-11-21T12:34:15;96474.75;;;9.74;100.00
36598;BME280;22607;49.550;11.940;2023-11-21T12:36:42;96482.25;;;9.77;100.00
36598;BME280;22607;49.550;11.940;2023-11-21T12:39:08;96474.66;;;9.82;100.00
36598;BME280;22607;49.550;11.940;2023-11-21T12:41:37;96483.03;;;10.01;100.00
36598;BME280;22607;49.550;11.940;2023-11-21T12:44:03;96478.75;;;9.61;100.00
36598;BME280;22607;49.550;11.940;2023-11-21T12:46:30;96496.69;;;9.72;100.00
36598;BME280;22607;49.550;11.940;2023-11-21T12:48:59;96492.38;;;9.80;100.00
36598;BME280;22607;49.550;11.940;2023-11-21T12:51:26;96489.81;;;9.71;100.00
36598;BME280;22607;49.550;11.940;2023-11-21T12:53:57;96494.63;;;9.68;100.00
36598;BME280;22607;49.550;11.940;2023-11-21T12:56:24;96504.28;;;9.67;100.00
36598;BME280;22607;49.550;11.940;2023-11-21T12:58:53;96499.44;;;9.79;100.00
36598;BME280;22607;49.550;11.940;2023-11-21T13:01:27;96498.91;;;9.84;100.00
36598;BME280;22607;49.550;11.940;2023-11-21T13:03:57;96496.81;;;9.79;100.00
36598;BME280;22607;49.550;11.940;2023-11-21T13:06:25;96502.53;;;9.83;100.00
36598;BME280;22607;49.550;11.940;2023-11-21T13:08:54;96503.09;;;9.70;100.00